Time;durP1;ratioP1;P1;durP2;ratioP2;P2;SDS_P1;SDS_P2;PMS_P1;PMS_P2;Temp;Humidity;BMP_temperature;BMP_pressure;BME280_temperature;BME280_humidity;BME280_pressure;Samples;Min_cycle;Max_cycle;Signal;HPM_P1;HPM_P2
2021/10/10 00:06:47;;;;;;;;;;;;;;;;;;;;;
2021/10/10 00:09:40;;;;;;;;;;;;;;;;;;;;;
2021/10/10 00:13:15;;;;;;;;;;;;;;;;;;;;;
2021/10/10 00:17:02;;;;;;;37.78;23.05;;;4.70;99.90;;;;;;4883238;29;20048;-90
2021/10/10 00:20:48;;;;;;;;;;;;;;;;;;;;;
2021/10/10 00:27:41;;;;;;;;;;;;;;;;;;;;;
2021/10/10 00:34:24;;;;;;;41.00;23.35;;;4.30;99.90;;;;;;4841256;29;20034;-90
2021/10/10 00:42:22;;;;;;;;;;;;;;;;;;;;;
2021/10/10 00:45:38;;;;;;;;;;;;;;;;;;;;;
2021/10/10 00:48:39;;;;;;;41.75;23.95;;;3.90;99.90;;;;;;4863667;29;20064;-92
2021/10/10 00:52:03;;;;;;;;;;;;;;;;;;;;;
2021/10/10 00:55:20;;;;;;;;;;;;;;;;;;;;;
2021/10/10 00:58:50;;;;;;;48.90;23.52;;;3.80;99.90;;;;;;4881429;29;20056;-91
2021/10/10 01:02:27;;;;;;;;;;;;;;;;;;;;;
2021/10/10 01:14:02;;;;;;;;;;;;;;;;;;;;;
2021/10/10 01:18:00;;;;;;;;;;;;;;;;;;;;;
2021/10/10 01:37:29;;;;;;;;;;;;;;;;;;;;;
2021/10/10 01:41:12;;;;;;;;;;;;;;;;;;;;;
2021/10/10 01:44:53;;;;;;;;;;;;;;;;;;;;;
2021/10/10 02:00:46;;;;;;;;;;;;;;;;;;;;;
2021/10/10 02:15:49;;;;;;;44.97;26.60;;;3.10;99.90;;;;;;4770870;30;20130;-90
2021/10/10 02:23:45;;;;;;;;;;;;;;;;;;;;;
2021/10/10 02:27:35;;;;;;;51.10;27.13;;;3.10;99.90;;;;;;4857870;29;20060;-90
2021/10/10 02:30:48;;;;;;;;;;;;;;;;;;;;;
2021/10/10 02:34:25;;;;;;;;;;;;;;;;;;;;;
2021/10/10 02:37:47;;;;;;;;;;;;;;;;;;;;;
2021/10/10 02:41:21;;;;;;;;;;;;;;;;;;;;;
2021/10/10 02:52:23;;;;;;;;;;;;;;;;;;;;;
2021/10/10 03:03:35;;;;;;;;;;;;;;;;;;;;;
2021/10/10 03:07:41;;;;;;;54.90;30.15;;;2.50;99.90;;;;;;4839103;29;20046;-91
2021/10/10 03:11:32;;;;;;;;;;;;;;;;;;;;;
2021/10/10 03:20:06;;;;;;;;;;;;;;;;;;;;;
2021/10/10 03:38:09;;;;;;;;;;;;;;;;;;;;;
2021/10/10 03:49:11;;;;;;;;;;;;;;;;;;;;;
2021/10/10 03:57:23;;;;;;;;;;;;;;;;;;;;;
2021/10/10 04:05:35;;;;;;;;;;;;;;;;;;;;;
2021/10/10 04:08:43;;;;;;;;;;;;;;;;;;;;;
2021/10/10 04:12:22;;;;;;;60.78;32.90;;;2.30;99.90;;;;;;4862924;29;20048;-90
2021/10/10 04:16:10;;;;;;;;;;;;;;;;;;;;;
2021/10/10 04:19:33;;;;;;;;;;;;;;;;;;;;;
2021/10/10 04:31:02;;;;;;;;;;;;;;;;;;;;;
2021/10/10 04:34:14;;;;;;;67.03;33.63;;;2.20;99.90;;;;;;4820373;29;20125;-92
2021/10/10 04:41:21;;;;;;;;;;;;;;;;;;;;;
2021/10/10 04:45:14;;;;;;;69.55;34.63;;;2.10;99.90;;;;;;4835159;29;20077;-90
2021/10/10 04:48:29;;;;;;;70.68;34.30;;;2.00;99.90;;;;;;4905529;29;20187;-89
2021/10/10 04:52:31;;;;;;;72.93;35.05;;;2.00;99.90;;;;;;4866638;29;20515;-89
2021/10/10 04:55:36;;;;;;;68.30;33.97;;;2.00;99.90;;;;;;4856083;29;20067;-90
2021/10/10 04:59:48;;;;;;;;;;;;;;;;;;;;;
2021/10/10 05:40:52;;;;;;;;;;;;;;;;;;;;;
2021/10/10 05:47:18;;;;;;;79.35;37.83;;;1.90;99.90;;;;;;6131781;23;20138;-92
2021/10/10 05:51:31;;;;;;;;;;;;;;;;;;;;;
2021/10/10 05:55:37;;;;;;;;;;;;;;;;;;;;;
2021/10/10 05:59:21;;;;;;;;;;;;;;;;;;;;;
2021/10/10 06:02:22;;;;;;;80.10;36.92;;;1.80;99.90;;;;;;5935486;24;20035;-86
2021/10/10 06:05:12;;;;;;;71.60;36.72;;;1.80;99.90;;;;;;5931407;24;20044;-86
2021/10/10 06:16:06;;;;;;;83.82;38.25;;;2.00;99.90;;;;;;6014638;23;20448;-89
2021/10/10 06:19:01;;;;;;;81.07;39.45;;;2.20;99.90;;;;;;6015021;23;20024;-88
2021/10/10 06:21:53;;;;;;;88.25;41.83;;;2.30;99.90;;;;;;6014120;23;20116;-89
2021/10/10 06:24:42;;;;;;;88.97;43.03;;;2.40;99.90;;;;;;5996639;23;20098;-90
2021/10/10 06:27:29;;;;;;;84.03;43.95;;;2.60;99.90;;;;;;6015754;23;20139;-89
2021/10/10 06:30:18;;;;;;;84.63;45.90;;;2.80;99.90;;;;;;6017320;23;20034;-92
2021/10/10 06:33:07;;;;;;;92.68;45.97;;;3.30;99.90;;;;;;5997984;23;20060;-91
2021/10/10 06:36:03;;;;;;;82.68;41.55;;;3.70;99.90;;;;;;6048287;23;20034;-91
2021/10/10 06:38:51;;;;;;;100.97;42.80;;;4.10;99.90;;;;;;6086699;23;20014;-89
2021/10/10 06:41:39;;;;;;;78.32;39.38;;;4.40;99.90;;;;;;6091503;23;20030;-88
2021/10/10 06:44:29;;;;;;;76.00;39.03;;;4.70;99.90;;;;;;6076719;23;20045;-89
2021/10/10 06:47:16;;;;;;;76.57;38.40;;;4.90;99.90;;;;;;6094779;23;20027;-91
2021/10/10 06:50:04;;;;;;;73.93;36.22;;;5.00;99.90;;;;;;6076458;23;19944;-90
2021/10/10 06:52:55;;;;;;;70.40;38.25;;;5.00;99.90;;;;;;6057058;23;20054;-91
2021/10/10 06:55:44;;;;;;;80.70;39.70;;;4.90;99.90;;;;;;6076297;23;20018;-91
2021/10/10 06:58:34;;;;;;;86.85;42.60;;;5.00;99.90;;;;;;6094930;23;20034;-91
2021/10/10 07:01:48;;;;;;;69.80;38.08;;;5.40;99.90;;;;;;5995263;23;20465;-93
2021/10/10 07:09:42;;;;;;;;;;;;;;;;;;;;;
2021/10/10 07:13:05;;;;;;;;;;;;;;;;;;;;;
2021/10/10 07:17:26;;;;;;;;;;;;;;;;;;;;;
2021/10/10 07:20:29;;;;;;;;;;;;;;;;;;;;;
2021/10/10 07:30:04;;;;;;;35.63;21.60;;;7.30;99.90;;;;;;5983110;24;20032;-90
2021/10/10 07:36:52;;;;;;;36.03;19.60;;;7.40;99.90;;;;;;6095632;23;20109;-92
2021/10/10 07:43:56;;;;;;;34.65;19.05;;;7.60;99.90;;;;;;6055743;23;20355;-87
2021/10/10 07:46:44;;;;;;;34.38;19.90;;;7.60;99.90;;;;;;6093665;23;20349;-87
2021/10/10 07:49:31;;;;;;;36.00;20.98;;;7.70;99.90;;;;;;6093972;23;20026;-89
2021/10/10 07:52:19;;;;;;;35.72;19.85;;;7.80;99.90;;;;;;6075045;23;20033;-90
2021/10/10 07:55:40;;;;;;;34.80;18.85;;;8.00;99.90;;;;;;6057568;23;20033;-91
2021/10/10 08:50:05;;;;;;;28.05;16.17;;;9.40;99.90;;;;;;6187767;23;20092;-87
2021/10/10 08:53:45;;;;;;;30.48;17.05;;;9.30;99.90;;;;;;6188763;23;20088;-88
2021/10/10 08:57:32;;;;;;;;;;;;;;;;;;;;;
2021/10/10 09:01:28;;;;;;;23.60;15.65;;;9.60;99.90;;;;;;6200264;23;20048;-91
2021/10/10 09:04:13;;;;;;;20.88;14.02;;;10.10;99.90;;;;;;6188292;23;20045;-88
2021/10/10 09:07:44;;;;;;;22.98;14.10;;;11.30;99.90;;;;;;6190037;23;20375;-89
2021/10/10 09:10:59;;;;;;;22.58;13.38;;;12.30;99.90;;;;;;6193771;23;20021;-88
2021/10/10 09:13:48;;;;;;;24.15;12.45;;;13.20;99.90;;;;;;6200794;23;20037;-87
2021/10/10 09:16:35;;;;;;;19.55;12.85;;;14.00;95.30;;;;;;6202113;23;20080;-89
2021/10/10 09:19:27;;;;;;;21.23;10.82;;;14.80;94.70;;;;;;6202946;23;20073;-91
2021/10/10 09:22:14;;;;;;;20.30;12.48;;;15.40;88.90;;;;;;6204820;23;20025;-86
2021/10/10 09:25:31;;;;;;;20.02;10.95;;;16.20;82.30;;;;;;6204137;23;20028;-89
2021/10/10 09:33:09;;;;;;;15.32;10.10;;;17.80;68.90;;;;;;6192389;23;20113;-90
2021/10/10 10:26:34;;;;;;;;;;;;;;;;;;;;;
2021/10/10 10:33:54;;;;;;;17.80;9.88;;;21.30;46.90;;;;;;6185054;23;20037;-87
2021/10/10 10:37:24;;;;;;;15.07;8.98;;;21.30;47.70;;;;;;6183441;23;20036;-89
2021/10/10 10:40:26;;;;;;;12.52;9.43;;;21.60;47.10;;;;;;6179416;23;20123;-89
2021/10/10 10:51:43;;;;;;;15.38;9.13;;;23.60;45.00;;;;;;6066273;23;20022;-87
2021/10/10 10:55:32;;;;;;;14.68;9.00;;;22.70;44.90;;;;;;6068750;23;20109;-90
2021/10/10 11:19:53;;;;;;;14.90;8.50;;;23.10;44.60;;;;;;6182729;23;20033;-88
2021/10/10 11:27:21;;;;;;;16.05;8.85;;;22.90;41.90;;;;;;6184100;23;20025;-86
2021/10/10 11:51:46;;;;;;;21.75;8.93;;;22.90;42.80;;;;;;6179118;23;20036;-86
2021/10/10 11:54:42;;;;;;;14.32;9.15;;;22.70;42.40;;;;;;6162774;23;20062;-88
2021/10/10 11:57:30;;;;;;;17.17;10.02;;;22.40;43.90;;;;;;6162668;23;20087;-88
2021/10/10 12:00:19;;;;;;;17.63;9.88;;;23.00;42.80;;;;;;6194251;23;20036;-89
2021/10/10 12:03:15;;;;;;;16.20;9.70;;;23.70;42.40;;;;;;6245267;22;20032;-87
2021/10/10 12:06:04;;;;;;;18.92;10.20;;;23.30;41.10;;;;;;6221170;23;20462;-85
2021/10/10 12:09:10;;;;;;;11.10;9.20;;;23.70;42.30;;;;;;6242941;23;20122;-86
2021/10/10 12:12:09;;;;;;;15.15;10.20;;;24.20;42.00;;;;;;6222847;23;20090;-88
2021/10/10 12:14:58;;;;;;;15.68;10.10;;;24.80;40.10;;;;;;6240968;23;20370;-85
2021/10/10 12:17:57;;;;;;;14.47;9.63;;;24.10;40.50;;;;;;6242375;23;20020;-85
2021/10/10 12:20:50;;;;;;;19.92;10.20;;;23.50;42.40;;;;;;6243213;23;20023;-85
2021/10/10 12:23:38;;;;;;;16.15;9.02;;;23.40;42.70;;;;;;6243872;23;20031;-91
2021/10/10 12:26:29;;;;;;;17.42;9.70;;;24.00;41.60;;;;;;6250871;22;20071;-92
2021/10/10 12:29:25;;;;;;;14.68;8.50;;;24.30;39.20;;;;;;6247276;23;20427;-91
2021/10/10 12:33:42;;;;;;;12.18;8.88;;;25.30;38.80;;;;;;6099304;23;20046;-92
2021/10/10 12:36:49;;;;;;;13.10;8.10;;;24.70;38.90;;;;;;6073235;23;20031;-90
2021/10/10 12:44:21;;;;;;;;;;;;;;;;;;;;;
2021/10/10 12:48:31;;;;;;;;;;;;;;;;;;;;;
2021/10/10 13:33:34;;;;;;;9.93;7.20;;;24.10;37.10;;;;;;6076178;23;20022;-90
2021/10/10 13:40:29;;;;;;;15.30;7.65;;;25.40;36.90;;;;;;5879640;24;20398;-90
2021/10/10 13:44:15;;;;;;;;;;;;;;;;;;;;;
2021/10/10 13:48:02;;;;;;;;;;;;;;;;;;;;;
2021/10/10 13:51:53;;;;;;;11.43;8.02;;;23.90;36.10;;;;;;5936207;23;20048;-91
2021/10/10 13:55:12;;;;;;;18.10;8.45;;;23.80;38.90;;;;;;5817792;24;20175;-92
2021/10/10 13:58:12;;;;;;;11.77;8.32;;;24.10;37.90;;;;;;5814252;24;20035;-92
2021/10/10 14:01:25;;;;;;;12.80;7.28;;;24.60;37.70;;;;;;5808981;24;20030;-91
2021/10/10 14:04:30;;;;;;;9.82;6.68;;;25.60;34.70;;;;;;5825675;24;20029;-91
2021/10/10 14:07:31;;;;;;;;;;;;;;;;;;;;;
2021/10/10 14:10:21;;;;;;;14.98;8.18;;;24.70;36.00;;;;;;5908923;24;20044;-91
2021/10/10 14:13:34;;;;;;;11.85;7.53;;;24.20;36.60;;;;;;6000106;23;20027;-91
2021/10/10 14:20:14;;;;;;;13.68;7.18;;;23.60;38.00;;;;;;5915803;24;20044;-91
2021/10/10 14:23:32;;;;;;;;;;;;;;;;;;;;;
2021/10/10 14:26:29;;;;;;;13.30;7.70;;;24.10;37.80;;;;;;5985206;24;20040;-90
2021/10/10 14:29:21;;;;;;;15.80;8.23;;;22.90;38.20;;;;;;5981638;24;20032;-91
2021/10/10 14:32:09;;;;;;;16.90;7.25;;;22.30;40.40;;;;;;5981594;24;20107;-90
2021/10/10 14:34:56;;;;;;;12.60;7.30;;;22.80;40.30;;;;;;5980038;24;20035;-91
2021/10/10 14:37:50;;;;;;;11.10;7.55;;;22.60;38.30;;;;;;6007085;23;20323;-91
2021/10/10 14:41:16;;;;;;;;;;;;;;;;;;;;;
2021/10/10 14:44:22;;;;;;;13.95;7.50;;;23.80;37.30;;;;;;6067199;23;20094;-91
2021/10/10 14:50:00;;;;;;;17.25;8.85;;;23.50;38.80;;;;;;6043829;23;20030;-89
2021/10/10 14:52:55;;;;;;;12.88;7.82;;;22.80;40.50;;;;;;6030567;23;20033;-90
2021/10/10 14:56:13;;;;;;;;;;;;;;;;;;;;;
2021/10/10 14:59:17;;;;;;;17.05;8.63;;;21.40;43.00;;;;;;6076947;23;20031;-91
2021/10/10 15:02:17;;;;;;;12.07;8.10;;;21.70;43.60;;;;;;6035526;23;20105;-92
2021/10/10 15:05:10;;;;;;;16.08;8.50;;;22.40;41.70;;;;;;6052377;23;20026;-92
2021/10/10 15:08:11;;;;;;;14.50;8.25;;;22.10;42.00;;;;;;6052633;23;20106;-90
2021/10/10 15:12:10;;;;;;;;;;;;;;;;;;;;;
2021/10/10 15:24:27;;;;;;;;;;;;;;;;;;;;;
2021/10/10 15:27:50;;;;;;;;;;;;;;;;;;;;;
2021/10/10 15:35:32;;;;;;;;;;;;;;;;;;;;;
2021/10/10 15:38:54;;;;;;;;;;;;;;;;;;;;;
2021/10/10 15:41:55;;;;;;;14.05;8.32;;;18.80;49.00;;;;;;5791089;24;20092;-91
2021/10/10 15:45:47;;;;;;;;;;;;;;;;;;;;;
2021/10/10 15:49:09;;;;;;;10.95;7.40;;;18.30;50.10;;;;;;5818153;24;20059;-90
2021/10/10 15:52:44;;;;;;;15.70;8.07;;;18.10;50.50;;;;;;5818062;24;20027;-90
2021/10/10 15:55:52;;;;;;;;;;;;;;;;;;;;;
2021/10/10 15:59:15;;;;;;;12.73;7.00;;;17.50;52.00;;;;;;5821690;24;20045;-91
2021/10/10 16:02:28;;;;;;;;;;;;;;;;;;;;;
2021/10/10 16:05:30;;;;;;;12.13;7.13;;;17.20;51.70;;;;;;5837604;24;20030;-90
2021/10/10 16:08:21;;;;;;;14.70;7.43;;;16.80;53.00;;;;;;5931609;23;20111;-91
2021/10/10 16:11:13;;;;;;;13.30;7.15;;;16.20;54.80;;;;;;5958343;23;20076;-90
2021/10/10 16:14:17;;;;;;;10.68;7.60;;;15.20;56.60;;;;;;5950036;24;20107;-90
2021/10/10 16:17:04;;;;;;;15.68;7.53;;;14.20;59.20;;;;;;6009056;23;20036;-91
2021/10/10 16:20:18;;;;;;;15.70;8.35;;;13.40;61.30;;;;;;6038814;23;20031;-89
2021/10/10 16:24:16;;;;;;;15.57;8.13;;;12.60;65.00;;;;;;6019921;23;20046;-91
2021/10/10 16:43:32;;;;;;;;;;;;;;;;;;;;;
2021/10/10 16:47:20;;;;;;;;;;;;;;;;;;;;;
2021/10/10 17:15:50;;;;;;;20.85;11.18;;;9.60;92.70;;;;;;5617506;22;15108349;-94
2021/10/10 17:23:25;;;;;;;19.20;11.93;;;7.80;99.90;;;;;;6198469;23;20029;-92
2021/10/10 17:26:45;;;;;;;23.33;12.52;;;7.70;99.90;;;;;;6167544;23;20097;-92
2021/10/10 17:29:57;;;;;;;18.63;12.10;;;7.50;99.90;;;;;;6206308;23;20036;-93
2021/10/10 17:32:53;;;;;;;;;;;7.40;99.90;;;;;;6214874;23;20025;-91
2021/10/10 17:36:34;;;;;;;;;;;;;;;;;;;;;
2021/10/10 17:40:03;;;;;;;;;;;;;;;;;;;;;
2021/10/10 17:43:18;;;;;;;19.90;12.40;;;7.40;99.90;;;;;;5916599;24;20024;-92
2021/10/10 17:46:19;;;;;;;21.08;12.50;;;7.30;99.90;;;;;;5927775;24;20035;-92
2021/10/10 17:49:18;;;;;;;22.02;13.10;;;7.30;99.90;;;;;;5907003;24;20138;-92
2021/10/10 17:52:29;;;;;;;;;;;;;;;;;;;;;
2021/10/10 17:56:18;;;;;;;29.50;16.88;;;7.30;99.90;;;;;;5961940;24;20033;-92
2021/10/10 18:12:46;;;;;;;;;;;;;;;;;;;;;
2021/10/10 18:16:26;;;;;;;;;;;;;;;;;;;;;
2021/10/10 18:19:19;;;;;;;33.67;21.10;;;7.30;99.90;;;;;;6026163;23;20376;-92
2021/10/10 18:22:40;;;;;;;;;;;;;;;;;;;;;
2021/10/10 18:25:43;;;;;;;;;;;;;;;;;;;;;
2021/10/10 18:29:08;;;;;;;;;;;;;;;;;;;;;
2021/10/10 18:32:49;;;;;;;49.45;26.20;;;6.90;99.90;;;;;;6150095;23;20110;-92
2021/10/10 18:35:52;;;;;;;;;;;;;;;;;;;;;
2021/10/10 18:39:03;;;;;;;40.50;23.60;;;6.80;99.90;;;;;;6053630;23;20035;-91
2021/10/10 18:42:24;;;;;;;41.63;24.38;;;6.70;99.90;;;;;;6118425;23;20025;-90
2021/10/10 18:46:04;;;;;;;42.75;24.05;;;6.50;99.90;;;;;;6155013;23;20064;-91
2021/10/10 18:49:35;;;;;;;42.40;23.90;;;6.40;99.90;;;;;;6154740;23;20155;-90
2021/10/10 18:53:35;;;;;;;38.30;23.00;;;6.30;99.90;;;;;;6139514;23;20037;-91
2021/10/10 18:56:50;;;;;;;35.15;22.30;;;6.20;99.90;;;;;;6189313;22;20039;-91
2021/10/10 19:00:13;;;;;;;;;;;;;;;;;;;;;
2021/10/10 19:03:56;;;;;;;35.58;22.55;;;6.10;99.90;;;;;;6157085;23;20025;-91
2021/10/10 19:07:36;;;;;;;;;;;;;;;;;;;;;
2021/10/10 19:11:22;;;;;;;;;;;;;;;;;;;;;
2021/10/10 19:14:46;;;;;;;;;;;;;;;;;;;;;
2021/10/10 19:18:32;;;;;;;;;;;;;;;;;;;;;
2021/10/10 19:22:35;;;;;;;44.53;24.63;;;5.70;99.90;;;;;;6041646;23;20184;-91
2021/10/10 19:26:03;;;;;;;34.97;24.55;;;5.60;99.90;;;;;;5888467;24;20081;-90
2021/10/10 19:29:55;;;;;;;;;;;;;;;;;;;;;
2021/10/10 19:33:51;;;;;;;43.05;24.40;;;5.50;99.90;;;;;;5971004;23;20040;-90
2021/10/10 19:37:25;;;;;;;;;;;;;;;;;;;;;
2021/10/10 19:40:39;;;;;;;29.23;17.75;;;5.50;99.90;;;;;;5904609;24;20025;-91
2021/10/10 19:43:40;;;;;;;43.22;24.83;;;5.50;99.90;;;;;;5896978;24;20034;-86
2021/10/10 19:46:31;;;;;;;39.08;24.67;;;5.30;99.90;;;;;;5898487;24;20085;-88
2021/10/10 19:49:34;;;;;;;37.42;23.70;;;5.30;99.90;;;;;;5945374;23;20027;-87
2021/10/10 19:52:22;;;;;;;35.42;22.08;;;5.20;99.90;;;;;;6063017;23;20026;-87
2021/10/10 19:55:12;;;;;;;37.50;22.13;;;5.30;99.90;;;;;;6124470;23;20026;-87
2021/10/10 19:58:00;;;;;;;40.65;22.67;;;5.30;99.90;;;;;;6153720;23;20386;-86
2021/10/10 20:00:47;;;;;;;37.42;22.90;;;5.30;99.90;;;;;;6245422;23;20023;-86
2021/10/10 20:03:37;;;;;;;39.38;20.73;;;5.30;99.90;;;;;;6224583;23;20016;-87
2021/10/10 20:06:29;;;;;;;34.85;22.33;;;5.20;99.90;;;;;;6222933;23;20032;-86
2021/10/10 20:09:16;;;;;;;33.28;21.70;;;5.10;99.90;;;;;;6246122;22;20020;-86
2021/10/10 20:12:04;;;;;;;35.67;21.40;;;5.10;99.90;;;;;;6244754;23;20024;-85
2021/10/10 20:14:52;;;;;;;33.17;22.95;;;5.10;99.90;;;;;;6258371;22;20030;-85
2021/10/10 20:17:39;;;;;;;40.20;23.92;;;5.10;99.90;;;;;;6230797;22;20433;-87
2021/10/10 20:20:26;;;;;;;41.08;25.92;;;5.10;99.90;;;;;;6275888;22;20028;-88
2021/10/10 20:23:14;;;;;;;52.28;29.70;;;5.10;99.90;;;;;;6251180;22;20034;-87
2021/10/10 20:26:01;;;;;;;44.30;25.88;;;5.20;99.90;;;;;;6273831;22;20028;-87
2021/10/10 20:28:51;;;;;;;43.25;27.55;;;5.10;99.90;;;;;;6274951;22;20028;-87
2021/10/10 20:31:41;;;;;;;42.47;25.70;;;5.00;99.90;;;;;;6273847;22;20047;-86
2021/10/10 20:34:30;;;;;;;44.42;25.00;;;4.90;99.90;;;;;;6275151;22;20360;-86
2021/10/10 20:37:18;;;;;;;41.97;26.27;;;4.90;99.90;;;;;;6258043;22;20085;-87
2021/10/10 20:40:06;;;;;;;42.08;26.73;;;4.80;99.90;;;;;;6253517;22;20104;-86
2021/10/10 20:42:53;;;;;;;39.63;26.40;;;4.90;99.90;;;;;;6277327;22;20077;-86
2021/10/10 20:45:43;;;;;;;45.75;28.33;;;4.90;99.90;;;;;;6256170;22;20032;-85
2021/10/10 20:48:30;;;;;;;54.88;30.63;;;4.90;99.90;;;;;;6254905;22;20092;-86
2021/10/10 20:51:18;;;;;;;49.58;29.75;;;4.80;99.90;;;;;;6272279;22;20019;-87
2021/10/10 20:54:05;;;;;;;53.60;32.15;;;4.70;99.90;;;;;;6275823;22;20055;-86
2021/10/10 20:56:52;;;;;;;61.47;35.15;;;4.60;99.90;;;;;;6251580;22;20399;-85
2021/10/10 20:59:39;;;;;;;62.38;36.15;;;4.50;99.90;;;;;;6275461;22;20398;-87
2021/10/10 21:02:26;;;;;;;62.03;36.17;;;4.60;99.90;;;;;;6274030;22;20089;-88
2021/10/10 21:05:14;;;;;;;53.75;32.60;;;4.60;99.90;;;;;;6253853;22;20390;-87
2021/10/10 21:08:04;;;;;;;51.25;33.83;;;4.50;99.90;;;;;;6251371;22;20051;-86
2021/10/10 21:10:52;;;;;;;51.92;31.73;;;4.60;99.90;;;;;;6233443;22;20024;-87
2021/10/10 21:13:39;;;;;;;47.20;28.75;;;4.50;99.90;;;;;;6230807;22;20110;-87
2021/10/10 21:16:26;;;;;;;46.10;29.17;;;4.50;99.90;;;;;;6273603;22;20027;-90
2021/10/10 21:19:14;;;;;;;45.35;28.25;;;4.50;99.90;;;;;;6275857;22;20034;-87
2021/10/10 21:22:15;;;;;;;45.25;27.58;;;4.40;99.90;;;;;;6273796;22;20031;-88
2021/10/10 21:25:09;;;;;;;53.38;26.73;;;4.40;99.90;;;;;;6255013;22;20311;-88
2021/10/10 21:28:30;;;;;;;43.90;26.85;;;4.40;99.90;;;;;;6274053;22;20032;-87
2021/10/10 21:31:20;;;;;;;41.30;26.45;;;4.40;99.90;;;;;;6275916;22;20055;-87
2021/10/10 21:34:32;;;;;;;39.60;26.17;;;4.30;99.90;;;;;;6273199;22;20431;-86
2021/10/10 21:37:20;;;;;;;42.70;26.35;;;4.20;99.90;;;;;;6254355;22;20038;-89
2021/10/10 21:40:08;;;;;;;41.95;26.02;;;4.10;99.90;;;;;;6272865;22;20027;-90
2021/10/10 21:42:55;;;;;;;41.83;26.75;;;4.00;99.90;;;;;;6256286;22;20059;-88
2021/10/10 21:45:43;;;;;;;48.97;28.77;;;3.90;99.90;;;;;;6278016;22;20074;-87
2021/10/10 21:48:30;;;;;;;55.55;30.08;;;3.70;99.90;;;;;;6254737;22;20027;-88
2021/10/10 21:51:20;;;;;;;55.40;33.33;;;3.70;99.90;;;;;;6278656;22;20101;-87
2021/10/10 21:54:10;;;;;;;53.28;31.42;;;3.70;99.90;;;;;;6274883;22;20069;-88
2021/10/10 21:56:57;;;;;;;55.67;33.40;;;3.60;99.90;;;;;;6255907;22;20023;-88
2021/10/10 21:59:46;;;;;;;55.20;33.42;;;3.60;99.90;;;;;;6262023;22;20446;-87
2021/10/10 22:02:37;;;;;;;57.05;35.03;;;3.60;99.90;;;;;;6291417;22;20019;-90
2021/10/10 22:05:24;;;;;;;56.30;34.70;;;3.70;99.90;;;;;;6280835;22;20043;-87
2021/10/10 22:08:14;;;;;;;58.53;34.67;;;3.70;99.90;;;;;;6254838;22;20031;-88
2021/10/10 22:11:05;;;;;;;60.22;33.47;;;3.70;99.90;;;;;;6253279;22;20027;-86
2021/10/10 22:13:55;;;;;;;56.83;34.28;;;3.70;99.90;;;;;;6277858;22;20031;-88
2021/10/10 22:16:42;;;;;;;57.45;33.50;;;3.70;99.90;;;;;;6274109;22;20020;-87
2021/10/10 22:19:32;;;;;;;56.78;33.95;;;3.70;99.90;;;;;;6255569;22;20027;-87
2021/10/10 22:22:19;;;;;;;52.72;33.28;;;3.70;99.90;;;;;;6254502;22;20020;-87
2021/10/10 22:25:19;;;;;;;51.25;31.52;;;3.60;99.90;;;;;;6275124;22;20024;-86
2021/10/10 22:30:19;;;;;;;50.58;31.90;;;3.60;99.90;;;;;;6274642;22;20713;-86
2021/10/10 22:31:13;;;;;;;47.92;29.80;;;3.50;99.90;;;;;;6274704;22;20027;-85
2021/10/10 22:34:00;;;;;;;49.53;29.45;;;3.40;99.90;;;;;;6276276;22;20032;-88
2021/10/10 22:36:48;;;;;;;56.30;31.13;;;3.30;99.90;;;;;;6275727;22;20051;-87
2021/10/10 22:39:36;;;;;;;54.45;32.17;;;3.40;99.90;;;;;;6275328;22;20034;-89
2021/10/10 22:42:23;;;;;;;57.78;33.33;;;3.60;99.90;;;;;;6256604;22;20070;-88
2021/10/10 22:45:11;;;;;;;54.95;32.83;;;3.70;99.90;;;;;;6274681;22;20051;-87
2021/10/10 22:47:59;;;;;;;45.10;29.80;;;3.60;99.90;;;;;;6276724;22;20050;-87
2021/10/10 22:50:49;;;;;;;46.13;29.27;;;3.50;99.90;;;;;;6254755;22;20112;-87
2021/10/10 22:53:38;;;;;;;49.15;28.35;;;3.40;99.90;;;;;;6253261;22;20105;-88
2021/10/10 22:56:28;;;;;;;47.22;29.95;;;3.30;99.90;;;;;;6255297;22;20049;-89
2021/10/10 22:59:15;;;;;;;49.63;28.63;;;3.20;99.90;;;;;;6279199;22;20081;-89
2021/10/10 23:02:03;;;;;;;54.90;31.83;;;3.20;99.90;;;;;;6274524;22;20271;-88
2021/10/10 23:04:50;;;;;;;48.85;30.60;;;3.30;99.90;;;;;;6255334;22;20035;-87
2021/10/10 23:07:40;;;;;;;53.42;31.65;;;3.40;99.90;;;;;;6252409;22;20039;-89
2021/10/10 23:10:27;;;;;;;58.15;35.15;;;3.50;99.90;;;;;;6254431;22;20053;-88
2021/10/10 23:13:15;;;;;;;50.65;30.45;;;3.50;99.90;;;;;;6251671;22;20421;-88
2021/10/10 23:16:03;;;;;;;48.95;29.15;;;3.50;99.90;;;;;;6276360;22;20027;-87
2021/10/10 23:18:50;;;;;;;50.55;29.15;;;3.40;99.90;;;;;;6274405;22;20027;-88
2021/10/10 23:21:39;;;;;;;49.88;28.50;;;3.40;99.90;;;;;;6251725;22;20042;-89
2021/10/10 23:24:26;;;;;;;46.97;28.65;;;3.30;99.90;;;;;;6253886;22;20031;-88
2021/10/10 23:27:13;;;;;;;48.67;28.15;;;3.30;99.90;;;;;;6231094;22;20082;-87
2021/10/10 23:30:01;;;;;;;50.92;29.20;;;3.30;99.90;;;;;;6275298;22;20153;-88
2021/10/10 23:32:48;;;;;;;51.75;29.77;;;3.20;99.90;;;;;;6254233;22;20016;-88
2021/10/10 23:35:35;;;;;;;49.78;28.92;;;3.20;99.90;;;;;;6274166;22;20157;-88
2021/10/10 23:38:25;;;;;;;51.15;28.55;;;3.20;99.90;;;;;;6276470;22;20028;-88
2021/10/10 23:41:13;;;;;;;45.25;26.55;;;3.20;99.90;;;;;;6276209;22;20034;-89
2021/10/10 23:44:00;;;;;;;54.15;27.98;;;3.10;99.90;;;;;;6236989;22;20020;-87
2021/10/10 23:46:47;;;;;;;50.25;27.90;;;3.10;99.90;;;;;;6286712;22;20103;-86
2021/10/10 23:49:34;;;;;;;49.28;29.50;;;3.10;99.90;;;;;;6283318;22;20051;-86
2021/10/10 23:52:23;;;;;;;55.80;31.65;;;3.10;99.90;;;;;;6249856;22;20116;-88
2021/10/10 23:55:10;;;;;;;44.10;27.60;;;3.10;99.90;;;;;;6233214;22;20095;-87
2021/10/10 23:57:57;;;;;;;51.15;28.60;;;3.10;99.90;;;;;;6275492;22;20089;-87
